Aviation Digital Data Service (ADDS)

Output produced by METARs form (0155 UTC 24 September 2018)
found at http://www.aviationweather.gov/metar/data/
 
KTVR 240053Z AUTO 10003KT 10SM SCT049 SCT060 25/23 A2992 RMK AO2 SLP138 T02500228
KTVR 232353Z AUTO 00000KT 10SM CLR 25/22 A2991 RMK AO2 SLP133 60004 T02500222 10311 20244 53003
KTVR 232253Z AUTO 00000KT 10SM CLR 25/23 A2989 RMK AO2 RAE32 SLP129 P0000 T02500233
KTVR 232153Z AUTO 00000KT 10SM -RA FEW075 BKN090 BKN110 25/23 A2990 RMK AO2 SLP130 P0001 T02500233
KTVR 232053Z AUTO 30003KT 10SM -RA SCT080 BKN110 24/23 A2990 RMK AO2 RAB1958 SLP130 P0001 60003 T02440228 56019
KTVR 232016Z AUTO VRB04KT 9SM -RA FEW060 BKN080 OVC100 25/23 A2991 RMK AO2 LTG DSNT NW RAB1958 P0000 T02500233
KTVR 231953Z AUTO VRB05KT 10SM VCTS FEW040 BKN060 OVC100 27/22 A2991 RMK AO2 LTG DSNT W RAB06E15 SLP134 P0000 T02720222
KTVR 231853Z AUTO 16016G22KT 10SM FEW030 FEW038 BKN050 31/21 A2993 RMK AO2 RAB23E38 SLP139 P0002 T03060211
KTVR 231846Z AUTO 12009KT 10SM SCT030 BKN050 31/22 A2993 RMK AO2 RAB23E38 P0002 T03060222
KTVR 231835Z AUTO 15012KT 10SM -RA BKN029 BKN034 BKN050 30/22 A2994 RMK AO2 RAB23 P0002 T03000222
KTVR 231653Z AUTO 18006KT 10SM SCT080 BKN095 28/23 A2997 RMK AO2 SLP156 T02780233
KTVR 231553Z AUTO 17005KT 10SM BKN095 27/23 A2999 RMK AO2 RAE29 SLP160 P0000 T02670233
KTVR 231453Z AUTO 16006KT 10SM -RA FEW021 SCT047 26/23 A2998 RMK AO2 RAB38 SLP159 P0000 60000 T02560228 53007
KTVR 231441Z AUTO 15005KT 10SM -RA SCT021 25/23 A2998 RMK AO2 RAB38 P0000 T02500228
KTVR 231414Z AUTO 14003KT 10SM BKN021 24/23 A2998 RMK AO2 T02440228
KTVR 231353Z AUTO 00000KT 10SM CLR 24/22 A2997 RMK AO2 SLP155 T02390222
KTVR 231253Z AUTO 00000KT 10SM FEW020 BKN031 23/22 A2996 RMK AO2 SLP152 T02330222
KTVR 231248Z AUTO 00000KT 10SM SCT020 BKN031 23/22 A2996 RMK AO2
KTVR 231222Z AUTO 00000KT 10SM BKN020 23/22 A2995 RMK AO2 T02330222
KTVR 231153Z AUTO 00000KT 10SM CLR 23/22 A2994 RMK AO2 SLP145 T02280217 10233 20217 55000
KTVR 231053Z AUTO 13004KT 10SM CLR 23/22 A2993 RMK AO2 SLP141 T02280217
KTVR 230953Z AUTO 11003KT 10SM CLR 22/21 A2994 RMK AO2 SLP142 T02220211
KTVR 230853Z AUTO 00000KT 10SM CLR 22/21 A2995 RMK AO2 SLP146 T02170206 56005
KTVR 230753Z AUTO 00000KT 10SM CLR 22/21 A2995 RMK AO2 SLP147 T02220211
KTVR 230653Z AUTO 00000KT 10SM SCT035 23/22 A2996 RMK AO2 SLP149 T02280217
KTVR 230553Z AUTO 00000KT 10SM CLR 23/22 A2996 RMK AO2 SLP150 T02330217 10250 20228 403330228 56009
KTVR 230453Z AUTO 13003KT 10SM CLR 23/22 A2997 RMK AO2 SLP153 T02280217
KTVR 230353Z AUTO 13003KT 10SM CLR 23/22 A2998 RMK AO2 SLP157 T02330217
KTVR 230253Z AUTO 06003KT 10SM OVC044 25/22 A2999 RMK AO2 SLP160 T02500222 51009
KTVR 230153Z AUTO 05004KT 10SM CLR 25/22 A2997 RMK AO2 SLP154 T02500222
KTVR 230053Z AUTO 11006KT 10SM FEW048 25/22 A2998 RMK AO2 SLP156 T02500222
KTVR 222353Z AUTO 00000KT 10SM FEW048 24/23 A2996 RMK AO2 LTG DSNT E AND SE SLP150 60000 T02440228 10333 20244 51008
KTVR 222253Z AUTO 31005KT 10SM BKN049 24/22 A2995 RMK AO2 RAB12E28 SLP146 P0000 T02440222
KTVR 222153Z AUTO 30004KT 9SM BKN070 27/22 A2995 RMK AO2 SLP147 T02720222
KTVR 222053Z AUTO VRB05KT 10SM CLR 29/23 A2993 RMK AO2 SLP142 T02890228 56015
KTVR 221953Z AUTO VRB03KT 10SM CLR 32/22 A2994 RMK AO2 LTG DSNT W AND NW SLP143 T03170222
KTVR 221853Z AUTO 15007KT 10SM FEW050 33/21 A2995 RMK AO2 LTG DSNT W SLP147 T03280211
KTVR 221753Z AUTO 17008KT 10SM FEW045 FEW055 33/21 A2998 RMK AO2 SLP156 T03280211 10328 20228 58016
KTVR 221653Z AUTO 15007KT 10SM FEW037 31/21 A3001 RMK AO2 SLP167 T03110211
KTVR 221603Z AUTO VRB04KT 10SM SCT029 BKN041 29/23 A3002 RMK AO2 T02940228
KTVR 221553Z AUTO 18007KT 10SM BKN026 BKN041 29/23 A3003 RMK AO2 SLP173 T02940228
KTVR 221548Z AUTO 17007KT 10SM SCT026 BKN039 30/23 A3002 RMK AO2
KTVR 221540Z AUTO 16008KT 10SM BKN026 BKN042 31/23 A3002 RMK AO2 T03060233
KTVR 221453Z AUTO 17007KT 10SM CLR 29/24 A3002 RMK AO2 SLP171 T02940239 51004
KTVR 221353Z AUTO 13004KT 10SM CLR 27/23 A3002 RMK AO2 SLP169 T02670228
KTVR 221253Z AUTO 11005KT 10SM CLR 24/22 A3001 RMK AO2 SLP169 T02440222
KTVR 221153Z AUTO 00000KT 10SM CLR 23/22 A3001 RMK AO2 SLP167 T02280217 10244 20228 51004
KTVR 221137Z AUTO 12003KT 10SM SCT028 23/22 A3001 RMK AO2 T02280222
KTVR 221124Z AUTO 00000KT 10SM BKN028 23/22 A3001 RMK AO2 T02330222
KTVR 221053Z AUTO 13003KT 10SM FEW120 23/22 A3001 RMK AO2 SLP167 T02330222
KTVR 220953Z AUTO 12003KT 10SM CLR 23/22 A3000 RMK AO2 SLP165 T02330222
KTVR 220853Z AUTO 00000KT 10SM SCT110 23/22 A3000 RMK AO2 SLP163 T02280222 56012
KTVR 220753Z AUTO 00000KT 10SM CLR 23/22 A3000 RMK AO2 SLP164 T02330222
KTVR 220653Z AUTO 00000KT 10SM CLR 23/22 A3002 RMK AO2 SLP170 T02330222
KTVR 220553Z AUTO 00000KT 10SM CLR 24/23 A3003 RMK AO2 SLP174 60000 T02390228 10306 20239 403500222 58005
KTVR 220453Z AUTO 00000KT 10SM CLR 25/23 A3004 RMK AO2 SLP177 T02500228
KTVR 220353Z AUTO 18003KT 10SM CLR 26/22 A3006 RMK AO2 SLP183 T02610222
KTVR 220253Z AUTO 19004KT 10SM CLR 27/22 A3004 RMK AO2 SLP179 60000 T02720222 53022
KTVR 220153Z AUTO 18006KT 10SM CLR 28/23 A3002 RMK AO2 RAB0056E08 SLP170 P0000 T02830233
KTVR 220053Z AUTO 17008KT 10SM BKN120 29/23 A3000 RMK AO2 SLP164 T02940233
KTVR 212353Z AUTO 17007KT 10SM CLR 31/22 A2998 RMK AO2 SLP157 T03060222 10350 20300 51010
KTVR 212253Z AUTO 16008KT 10SM FEW110 32/21 A2997 RMK AO2 SLP154 T03220211
KTVR 212153Z AUTO 16009KT 10SM FEW120 32/22 A2996 RMK AO2 SLP151 T03220217
KTVR 212053Z AUTO VRB06KT 10SM CLR 34/21 A2995 RMK AO2 SLP147 T03440211 56027
KTVR 211953Z AUTO 12004KT 10SM CLR 34/21 A2997 RMK AO2 SLP154 T03390206
KTVR 211853Z AUTO VRB03KT 10SM BKN050 BKN070 34/21 A3000 RMK AO2 SLP165 T03390206
KTVR 211753Z AUTO 15006KT 10SM SCT047 SCT055 33/22 A3003 RMK AO2 SLP175 T03280217 10333 20228 58014
KTVR 211653Z AUTO VRB05KT 10SM SCT038 31/22 A3006 RMK AO2 SLP184 T03060222
KTVR 211553Z AUTO 05005KT 10SM FEW031 SCT048 SCT055 29/23 A3007 RMK AO2 SLP188 T02940233
KTVR 211453Z AUTO 00000KT 10SM FEW023 29/24 A3007 RMK AO2 SLP189 T02890239 50005
KTVR 211353Z AUTO 15005KT 10SM CLR 28/23 A3007 RMK AO2 SLP189 T02780233
KTVR 211253Z AUTO 13003KT 7SM SCT026 25/23 A3007 RMK AO2 SLP188 T02500228
KTVR 211153Z AUTO 00000KT 6SM BR CLR 23/22 A3006 RMK AO2 SLP184 T02330222 10250 20222 53015
KTVR 211053Z AUTO 00000KT 5SM BR CLR 23/22 A3004 RMK AO2 SLP179 T02280217
KTVR 210953Z AUTO 00000KT 4SM BR CLR 23/22 A3003 RMK AO2 SLP173 T02280217
KTVR 210853Z AUTO 00000KT 5SM BR CLR 23/22 A3001 RMK AO2 SLP169 T02280217 55002
KTVR 210753Z AUTO 00000KT 9SM CLR 23/22 A3001 RMK AO2 SLP167 T02330222
KTVR 210653Z AUTO 00000KT 10SM CLR 24/22 A3001 RMK AO2 SLP168 T02390222
KTVR 210553Z AUTO 17003KT 10SM FEW050 25/23 A3002 RMK AO2 SLP171 T02500228 10311 20244 403500211 50010
KTVR 210453Z AUTO VRB03KT 10SM FEW060 27/22 A3003 RMK AO2 SLP173 T02670222
KTVR 210353Z AUTO 17006KT 10SM CLR 25/22 A3001 RMK AO2 SLP167 T02500222
KTVR 210253Z AUTO 00000KT 10SM SCT065 26/23 A2999 RMK AO2 SLP161 T02560228 53017